Time;durP1;ratioP1;P1;durP2;ratioP2;P2;SDS_P1;SDS_P2;PMS_P1;PMS_P2;Temp;Humidity;BMP_temperature;BMP_pressure;BME280_temperature;BME280_humidity;BME280_pressure;Samples;Min_cycle;Max_cycle;Signal;HPM_P1;HPM_P2
2024/01/31 00:00:51;;;;;;;4.55;2.30;;;7.50;92.30;;;;;;5073429;28;20025;-34
2024/01/31 00:03:16;;;;;;;4.65;2.45;;;7.50;92.30;;;;;;5073595;28;20046;-34
2024/01/31 00:05:42;;;;;;;7.28;2.45;;;7.50;92.30;;;;;;5073375;28;20017;-35
2024/01/31 00:08:07;;;;;;;5.32;2.22;;;7.50;92.30;;;;;;5073361;28;20025;-32
2024/01/31 00:10:33;;;;;;;10.25;2.17;;;7.50;92.30;;;;;;5073633;28;20056;-36
2024/01/31 00:12:58;;;;;;;6.55;2.05;;;7.50;92.20;;;;;;5073317;28;20360;-34
2024/01/31 00:15:24;;;;;;;6.78;2.10;;;7.50;92.20;;;;;;5073275;28;20536;-31
2024/01/31 00:17:51;;;;;;;5.07;2.17;;;7.50;92.20;;;;;;5073356;28;20020;-32
2024/01/31 00:20:16;;;;;;;2.47;1.67;;;7.50;92.10;;;;;;5073488;28;20050;-35
2024/01/31 00:22:42;;;;;;;3.85;1.80;;;7.50;92.20;;;;;;5073473;28;20017;-36
2024/01/31 00:25:08;;;;;;;5.95;1.88;;;7.50;92.20;;;;;;5072750;28;20381;-33
2024/01/31 00:27:33;;;;;;;6.15;1.80;;;7.50;92.10;;;;;;5073161;28;20483;-32
2024/01/31 00:29:59;;;;;;;5.00;2.10;;;7.50;92.10;;;;;;5073345;28;20017;-34
2024/01/31 00:32:24;;;;;;;3.47;1.85;;;7.50;92.10;;;;;;5073130;28;20024;-33
2024/01/31 00:34:50;;;;;;;6.35;1.80;;;7.50;92.10;;;;;;5072739;28;20048;-33
2024/01/31 00:37:15;;;;;;;4.05;1.80;;;7.50;92.00;;;;;;5072430;28;20036;-33
2024/01/31 00:39:41;;;;;;;6.88;2.13;;;7.50;92.00;;;;;;5072662;28;20103;-31
2024/01/31 00:42:07;;;;;;;3.22;1.85;;;7.40;92.00;;;;;;5072937;28;20029;-37
2024/01/31 00:44:33;;;;;;;5.43;1.88;;;7.40;92.00;;;;;;5072887;28;20028;-32
2024/01/31 00:46:58;;;;;;;4.53;1.75;;;7.40;92.10;;;;;;5072832;28;20125;-33
2024/01/31 00:49:24;;;;;;;5.18;2.10;;;7.50;92.10;;;;;;5072813;28;20472;-34
2024/01/31 00:51:49;;;;;;;3.30;1.90;;;7.40;92.00;;;;;;5072526;28;20021;-31
2024/01/31 00:54:15;;;;;;;5.00;1.73;;;7.40;92.00;;;;;;5072605;28;20048;-37
2024/01/31 00:56:40;;;;;;;2.85;1.73;;;7.40;92.00;;;;;;5072621;28;20028;-31
2024/01/31 00:59:06;;;;;;;5.60;2.00;;;7.40;92.00;;;;;;5072386;28;20059;-32
2024/01/31 01:01:31;;;;;;;5.90;1.70;;;7.40;91.90;;;;;;5072631;28;20025;-36
2024/01/31 01:03:57;;;;;;;6.15;1.80;;;7.40;91.90;;;;;;5072081;28;20469;-34
2024/01/31 01:06:23;;;;;;;4.50;1.90;;;7.40;91.90;;;;;;5072304;28;20029;-36
2024/01/31 01:08:48;;;;;;;5.55;1.95;;;7.40;91.90;;;;;;5072329;28;20016;-39
2024/01/31 01:11:14;;;;;;;2.08;1.50;;;7.30;91.90;;;;;;5072475;28;20048;-39
2024/01/31 01:13:39;;;;;;;3.47;1.60;;;7.40;92.00;;;;;;5072141;28;20021;-37
2024/01/31 01:16:05;;;;;;;4.85;1.70;;;7.40;92.00;;;;;;5072358;28;20524;-36
2024/01/31 01:18:31;;;;;;;4.03;1.48;;;7.40;91.90;;;;;;5072503;28;20029;-36
2024/01/31 01:20:56;;;;;;;3.75;1.52;;;7.40;91.90;;;;;;5072441;28;20016;-34
2024/01/31 01:23:22;;;;;;;3.10;1.42;;;7.40;91.90;;;;;;5072432;28;20024;-34
2024/01/31 01:25:48;;;;;;;3.10;1.55;;;7.50;91.90;;;;;;5072018;28;20108;-37
2024/01/31 01:28:13;;;;;;;5.20;1.60;;;7.50;91.90;;;;;;5072330;28;20028;-37
2024/01/31 01:30:39;;;;;;;2.70;1.40;;;7.50;91.80;;;;;;5072065;28;20460;-34
2024/01/31 01:33:05;;;;;;;2.25;1.20;;;7.50;91.80;;;;;;5072104;28;20067;-36
2024/01/31 01:35:30;;;;;;;5.82;1.30;;;7.50;91.80;;;;;;5071700;28;20127;-35
2024/01/31 01:37:56;;;;;;;6.55;1.50;;;7.50;91.80;;;;;;5072291;28;20056;-35
2024/01/31 01:40:22;;;;;;;2.88;1.20;;;7.50;91.80;;;;;;5072192;28;20082;-31
2024/01/31 01:42:47;;;;;;;4.35;1.40;;;7.50;91.70;;;;;;5072045;28;20029;-34
2024/01/31 01:45:13;;;;;;;4.93;1.60;;;7.60;91.80;;;;;;5072109;28;20056;-30
2024/01/31 01:47:42;;;;;;;3.40;1.27;;;7.60;91.80;;;;;;5071852;28;20363;-33
2024/01/31 01:50:10;;;;;;;4.10;1.27;;;7.60;91.70;;;;;;5058911;28;20461;-31
2024/01/31 01:52:37;;;;;;;2.65;1.10;;;7.70;91.70;;;;;;5078500;28;20024;-36
2024/01/31 01:55:04;;;;;;;2.05;1.08;;;7.70;91.70;;;;;;5078790;28;20032;-35
2024/01/31 01:57:33;;;;;;;3.00;1.27;;;7.70;91.60;;;;;;5078546;28;20074;-37
2024/01/31 01:59:59;;;;;;;2.25;1.30;;;7.70;91.60;;;;;;5078574;28;20081;-34
2024/01/31 02:02:26;;;;;;;4.80;1.60;;;7.70;91.60;;;;;;5077975;28;20512;-33
2024/01/31 02:04:51;;;;;;;4.07;1.20;;;7.70;91.60;;;;;;5078434;28;20469;-35
2024/01/31 02:07:24;;;;;;;2.67;1.08;;;7.70;91.50;;;;;;5078376;28;20017;-34
2024/01/31 02:09:51;;;;;;;4.25;1.42;;;7.70;91.50;;;;;;5078809;28;20020;-36
2024/01/31 02:12:16;;;;;;;3.50;1.45;;;7.70;91.50;;;;;;5078641;28;20016;-33
2024/01/31 02:14:44;;;;;;;5.85;1.30;;;7.70;91.50;;;;;;5078052;28;20028;-34
2024/01/31 02:17:10;;;;;;;1.67;1.30;;;7.70;91.50;;;;;;5078545;28;20029;-38
2024/01/31 02:19:36;;;;;;;2.33;1.30;;;7.70;91.50;;;;;;5078509;28;20480;-39
2024/01/31 02:22:05;;;;;;;3.22;1.50;;;7.70;91.50;;;;;;5078295;28;20032;-33
2024/01/31 02:24:30;;;;;;;4.00;1.58;;;7.70;91.50;;;;;;5078161;28;20020;-36
2024/01/31 02:26:56;;;;;;;3.03;1.50;;;7.70;91.40;;;;;;5078254;28;20035;-35
2024/01/31 02:29:21;;;;;;;5.07;1.27;;;7.70;91.40;;;;;;5078474;28;20028;-35
2024/01/31 02:31:47;;;;;;;2.83;1.58;;;7.70;91.40;;;;;;5078434;28;20031;-35
2024/01/31 02:34:13;;;;;;;3.17;1.38;;;7.70;91.40;;;;;;5078026;28;20045;-33
2024/01/31 02:36:38;;;;;;;2.70;1.38;;;7.70;91.40;;;;;;5078223;28;20024;-33
2024/01/31 02:39:04;;;;;;;4.13;1.88;;;7.70;91.40;;;;;;5078372;28;20025;-36
2024/01/31 02:41:29;;;;;;;4.35;1.50;;;7.70;91.30;;;;;;5078073;28;20481;-36
2024/01/31 02:43:55;;;;;;;4.00;1.50;;;7.60;91.40;;;;;;5078033;28;20031;-33
2024/01/31 02:46:21;;;;;;;6.13;1.55;;;7.50;91.40;;;;;;5078215;28;20032;-33
2024/01/31 02:48:48;;;;;;;3.75;1.70;;;7.50;91.40;;;;;;5078403;28;20105;-34
2024/01/31 02:51:14;;;;;;;3.17;1.55;;;7.60;91.50;;;;;;5078237;28;20020;-32
2024/01/31 02:53:40;;;;;;;2.65;1.17;;;7.60;91.50;;;;;;5077687;28;20190;-35
2024/01/31 02:56:07;;;;;;;2.85;1.40;;;7.60;91.50;;;;;;5078297;28;20021;-33
2024/01/31 02:58:33;;;;;;;2.35;1.50;;;7.60;91.50;;;;;;5078069;28;20119;-32
2024/01/31 03:01:00;;;;;;;2.50;1.20;;;7.60;91.50;;;;;;5075360;28;20061;-36
2024/01/31 03:03:26;;;;;;;4.55;1.40;;;7.60;91.50;;;;;;5074460;28;20035;-36
2024/01/31 03:05:51;;;;;;;2.60;1.30;;;7.60;91.50;;;;;;5074446;28;20032;-31
2024/01/31 03:08:17;;;;;;;4.13;1.42;;;7.60;91.50;;;;;;5074690;28;20077;-35
2024/01/31 03:10:44;;;;;;;3.08;1.40;;;7.60;91.50;;;;;;5074510;28;20031;-36
2024/01/31 03:13:10;;;;;;;4.18;1.70;;;7.60;91.50;;;;;;5074766;28;20024;-37
2024/01/31 03:15:36;;;;;;;4.40;1.50;;;7.60;91.60;;;;;;5074471;28;20032;-34
2024/01/31 03:18:02;;;;;;;2.83;1.35;;;7.60;91.50;;;;;;5074548;28;20029;-32
2024/01/31 03:20:27;;;;;;;2.83;1.25;;;7.60;91.50;;;;;;5074456;28;20024;-36
2024/01/31 03:22:53;;;;;;;4.32;1.40;;;7.60;91.50;;;;;;5074790;28;20486;-34
2024/01/31 03:25:18;;;;;;;3.55;1.40;;;7.60;91.50;;;;;;5074182;28;20016;-36
2024/01/31 03:27:44;;;;;;;4.97;1.20;;;7.60;91.50;;;;;;5072977;28;20016;-38
2024/01/31 03:30:10;;;;;;;4.60;1.63;;;7.60;91.50;;;;;;5074362;28;20535;-36
2024/01/31 03:32:35;;;;;;;3.92;1.40;;;7.70;91.50;;;;;;5074039;28;20032;-32
2024/01/31 03:35:01;;;;;;;5.05;1.73;;;7.70;91.50;;;;;;5073875;28;20052;-33
2024/01/31 03:37:27;;;;;;;2.58;1.27;;;7.70;91.50;;;;;;5074352;28;20044;-30
2024/01/31 03:39:52;;;;;;;2.88;1.40;;;7.70;91.50;;;;;;5074268;28;20749;-34
2024/01/31 03:42:18;;;;;;;3.95;1.30;;;7.70;91.50;;;;;;5074007;28;20492;-35
2024/01/31 03:44:43;;;;;;;2.67;1.33;;;7.60;91.40;;;;;;5074036;28;20028;-39
2024/01/31 03:47:09;;;;;;;3.00;1.30;;;7.70;91.50;;;;;;5073777;28;20374;-32
2024/01/31 03:49:34;;;;;;;3.55;1.45;;;7.60;91.50;;;;;;5073886;28;20082;-34
2024/01/31 03:52:00;;;;;;;4.35;1.70;;;7.60;91.50;;;;;;5072466;28;20028;-31
2024/01/31 03:54:26;;;;;;;1.90;1.45;;;7.60;91.50;;;;;;5074034;28;20058;-32
2024/01/31 03:56:51;;;;;;;2.80;1.70;;;7.60;91.50;;;;;;5074150;28;20484;-33
2024/01/31 03:59:17;;;;;;;4.05;2.10;;;7.60;91.40;;;;;;5073775;28;20024;-35
2024/01/31 04:01:42;;;;;;;6.35;2.22;;;7.70;91.50;;;;;;5073760;28;20544;-34
2024/01/31 04:04:08;;;;;;;4.60;1.55;;;7.60;91.40;;;;;;5073682;28;20431;-34
2024/01/31 04:06:34;;;;;;;3.75;1.70;;;7.60;91.40;;;;;;5073520;28;20020;-34
2024/01/31 04:08:59;;;;;;;5.00;1.60;;;7.60;91.40;;;;;;5073673;28;20404;-34
2024/01/31 04:11:25;;;;;;;4.55;2.05;;;7.60;91.40;;;;;;5073477;28;20054;-34
2024/01/31 04:13:50;;;;;;;4.72;1.58;;;7.60;91.40;;;;;;5073320;28;20048;-32
2024/01/31 04:16:16;;;;;;;3.33;1.40;;;7.60;91.40;;;;;;5073506;28;20025;-35
2024/01/31 04:18:42;;;;;;;8.50;2.55;;;7.60;91.40;;;;;;5073288;28;20074;-30
2024/01/31 04:21:07;;;;;;;2.53;1.30;;;7.60;91.40;;;;;;5073564;28;20078;-31
2024/01/31 04:23:33;;;;;;;2.67;1.63;;;7.60;91.40;;;;;;5073237;28;20024;-33
2024/01/31 04:26:00;;;;;;;3.40;1.48;;;7.60;91.40;;;;;;5073299;28;20045;-35
2024/01/31 04:28:25;;;;;;;2.08;1.50;;;7.60;91.40;;;;;;5073401;28;20020;-34
2024/01/31 04:30:51;;;;;;;3.40;1.25;;;7.70;91.40;;;;;;5073039;28;20024;-34
2024/01/31 04:33:17;;;;;;;6.40;1.45;;;7.70;91.40;;;;;;5073068;28;20020;-37
2024/01/31 04:35:42;;;;;;;6.93;1.80;;;7.70;91.30;;;;;;5072598;28;20056;-34
2024/01/31 04:38:08;;;;;;;3.55;1.52;;;7.60;91.30;;;;;;5072997;28;20028;-35
2024/01/31 04:40:33;;;;;;;1.95;1.30;;;7.60;91.40;;;;;;5071625;28;20112;-34
2024/01/31 04:42:59;;;;;;;2.53;1.48;;;7.60;91.40;;;;;;5073253;28;20017;-35
2024/01/31 04:45:24;;;;;;;2.42;1.50;;;7.60;91.40;;;;;;5072792;28;20021;-33
2024/01/31 04:47:50;;;;;;;4.10;1.77;;;7.60;91.40;;;;;;5072617;28;20024;-35
2024/01/31 04:50:16;;;;;;;4.22;1.73;;;7.60;91.40;;;;;;5072621;28;20024;-36
2024/01/31 04:52:41;;;;;;;2.55;1.17;;;7.60;91.40;;;;;;5072643;28;20584;-36
2024/01/31 04:55:07;;;;;;;2.40;1.48;;;7.60;91.40;;;;;;5072781;28;20027;-34
2024/01/31 04:57:33;;;;;;;3.22;1.25;;;7.60;91.40;;;;;;5072847;28;20044;-34
2024/01/31 04:59:58;;;;;;;1.98;1.30;;;7.60;91.40;;;;;;5072682;28;20029;-32
2024/01/31 05:02:24;;;;;;;3.80;1.23;;;7.60;91.40;;;;;;5072531;28;20387;-32
2024/01/31 05:04:49;;;;;;;5.30;1.70;;;7.70;91.40;;;;;;5072350;28;20024;-40
2024/01/31 05:07:15;;;;;;;2.65;1.40;;;7.70;91.40;;;;;;5072346;28;20681;-33
2024/01/31 05:09:41;;;;;;;3.78;1.17;;;7.70;91.30;;;;;;5072677;28;20028;-31
2024/01/31 05:12:06;;;;;;;4.43;1.35;;;7.70;91.30;;;;;;5072471;28;20458;-34
2024/01/31 05:14:32;;;;;;;2.75;1.30;;;7.70;91.30;;;;;;5072555;28;20025;-34
2024/01/31 05:16:58;;;;;;;2.88;1.52;;;7.70;91.30;;;;;;5072495;28;20024;-35
2024/01/31 05:19:23;;;;;;;3.88;1.20;;;7.70;91.30;;;;;;5072529;28;20039;-36
2024/01/31 05:21:51;;;;;;;4.63;1.42;;;7.70;91.30;;;;;;5072469;28;20420;-34
2024/01/31 05:24:18;;;;;;;4.50;1.50;;;7.70;91.30;;;;;;5071379;28;20025;-33
2024/01/31 05:26:45;;;;;;;2.08;1.17;;;7.70;91.30;;;;;;5072110;28;20082;-34
2024/01/31 05:29:11;;;;;;;3.88;1.45;;;7.70;91.30;;;;;;5072209;28;20504;-33
2024/01/31 05:31:36;;;;;;;3.35;1.00;;;7.70;91.30;;;;;;5072017;28;20025;-38
2024/01/31 05:34:02;;;;;;;2.67;1.50;;;7.70;91.30;;;;;;5072074;28;20047;-35
2024/01/31 05:36:28;;;;;;;5.55;1.40;;;7.70;91.20;;;;;;5071875;28;20039;-32
2024/01/31 05:38:53;;;;;;;5.13;1.40;;;7.70;91.30;;;;;;5071925;28;20473;-36
2024/01/31 05:41:19;;;;;;;1.50;1.20;;;7.70;91.20;;;;;;5071599;28;20051;-36
2024/01/31 05:43:46;;;;;;;4.80;1.40;;;7.70;91.30;;;;;;5072153;28;20032;-37
2024/01/31 05:46:15;;;;;;;4.90;1.42;;;7.70;91.30;;;;;;5071943;28;20032;-33
2024/01/31 05:48:42;;;;;;;4.20;1.40;;;7.70;91.30;;;;;;5071817;28;20066;-35
2024/01/31 05:51:08;;;;;;;3.30;1.45;;;7.70;91.30;;;;;;5072142;28;20016;-33
2024/01/31 05:53:33;;;;;;;3.13;1.42;;;7.70;91.20;;;;;;5071822;28;20032;-33
2024/01/31 05:55:59;;;;;;;3.67;1.60;;;7.70;91.20;;;;;;5071832;28;20025;-31
2024/01/31 05:58:24;;;;;;;2.78;1.38;;;7.70;91.20;;;;;;5071615;28;20021;-36
2024/01/31 06:00:51;;;;;;;2.15;1.10;;;7.70;91.20;;;;;;5072113;28;20036;-30
2024/01/31 06:03:17;;;;;;;3.88;1.48;;;7.60;91.20;;;;;;5071602;28;20048;-31
2024/01/31 06:05:43;;;;;;;4.13;1.60;;;7.70;91.20;;;;;;5071521;28;20543;-35
2024/01/31 06:08:08;;;;;;;3.05;1.60;;;7.70;91.20;;;;;;5071882;28;20416;-31
2024/01/31 06:10:34;;;;;;;2.92;1.55;;;7.70;91.20;;;;;;5071840;28;20052;-36
2024/01/31 06:12:59;;;;;;;4.57;1.65;;;7.70;91.20;;;;;;5071583;28;20473;-37
2024/01/31 06:15:25;;;;;;;3.20;1.45;;;7.70;91.10;;;;;;5071536;28;20028;-35
2024/01/31 06:17:51;;;;;;;2.95;1.50;;;7.70;91.10;;;;;;5071437;28;20031;-36
2024/01/31 06:20:17;;;;;;;2.85;1.52;;;7.70;91.10;;;;;;5071411;28;20035;-33
2024/01/31 06:22:43;;;;;;;2.63;1.90;;;7.70;91.10;;;;;;5071616;28;20062;-34
2024/01/31 06:25:08;;;;;;;2.70;1.42;;;7.70;91.10;;;;;;5071424;28;20090;-31
2024/01/31 06:27:36;;;;;;;4.18;1.45;;;7.70;91.10;;;;;;5071636;28;20020;-33
2024/01/31 06:30:03;;;;;;;3.05;1.50;;;7.70;91.00;;;;;;5071499;28;20020;-32
2024/01/31 06:32:34;;;;;;;2.25;1.50;;;7.70;91.00;;;;;;5071572;28;20025;-35
2024/01/31 06:35:00;;;;;;;3.40;1.67;;;7.60;91.00;;;;;;5069707;28;20049;-29
2024/01/31 06:37:26;;;;;;;4.85;1.90;;;7.60;91.00;;;;;;5074529;28;20534;-32
2024/01/31 06:39:53;;;;;;;5.18;1.60;;;7.60;91.00;;;;;;5075128;28;20025;-33
2024/01/31 06:42:19;;;;;;;2.42;1.30;;;7.60;91.00;;;;;;5075006;28;20024;-37
2024/01/31 06:44:45;;;;;;;2.63;1.40;;;7.60;91.00;;;;;;5074773;28;20032;-31
2024/01/31 06:47:11;;;;;;;1.83;1.42;;;7.60;90.90;;;;;;5074835;28;20380;-31
2024/01/31 06:49:36;;;;;;;4.13;1.65;;;7.60;90.90;;;;;;5075055;28;20016;-32
2024/01/31 06:52:02;;;;;;;3.95;1.60;;;7.60;90.90;;;;;;5074794;28;20478;-30
2024/01/31 06:54:28;;;;;;;4.10;1.70;;;7.60;90.90;;;;;;5075006;28;20020;-32
2024/01/31 06:56:53;;;;;;;3.08;2.08;;;7.60;90.90;;;;;;5074586;28;20078;-33
2024/01/31 06:59:19;;;;;;;5.57;2.10;;;7.60;90.80;;;;;;5074829;28;20023;-37
2024/01/31 07:01:45;;;;;;;4.20;2.20;;;7.60;90.70;;;;;;5074844;28;20031;-32
2024/01/31 07:04:11;;;;;;;3.35;2.08;;;7.60;90.70;;;;;;5074454;28;20024;-32
2024/01/31 07:06:36;;;;;;;4.30;2.08;;;7.60;90.60;;;;;;5074353;28;20059;-35
2024/01/31 07:09:02;;;;;;;2.70;2.15;;;7.60;90.50;;;;;;5074746;28;20031;-36
2024/01/31 07:11:27;;;;;;;4.43;2.13;;;7.60;90.50;;;;;;5074955;28;20099;-34
2024/01/31 07:13:53;;;;;;;3.35;1.98;;;7.60;90.40;;;;;;5074437;28;20035;-33
2024/01/31 07:16:19;;;;;;;3.60;2.25;;;7.60;90.40;;;;;;5074675;28;20025;-34
2024/01/31 07:18:45;;;;;;;2.25;2.00;;;7.50;90.30;;;;;;5074662;28;20098;-37
2024/01/31 07:21:22;;;;;;;3.75;2.10;;;7.50;90.30;;;;;;5074841;28;20101;-35
2024/01/31 07:23:47;;;;;;;6.93;2.20;;;7.50;90.30;;;;;;5074593;28;20021;-32
2024/01/31 07:26:23;;;;;;;5.72;2.15;;;7.40;90.30;;;;;;5074603;28;20039;-34
2024/01/31 07:28:50;;;;;;;3.72;2.30;;;7.50;90.40;;;;;;5074629;28;20020;-35
2024/01/31 07:31:16;;;;;;;3.78;2.35;;;7.50;90.40;;;;;;5074447;28;20440;-31
2024/01/31 07:33:41;;;;;;;4.90;2.30;;;7.50;90.40;;;;;;5074031;28;20059;-32
2024/01/31 07:36:07;;;;;;;2.67;2.33;;;7.50;90.20;;;;;;5074312;28;20042;-30
2024/01/31 07:38:34;;;;;;;5.25;2.78;;;7.40;90.50;;;;;;5074440;28;20052;-36
2024/01/31 07:40:59;;;;;;;2.75;2.30;;;7.50;90.30;;;;;;5072713;28;20413;-32
2024/01/31 07:43:25;;;;;;;5.32;2.30;;;7.50;90.30;;;;;;5073929;28;20070;-36
2024/01/31 07:45:51;;;;;;;8.35;2.90;;;7.50;90.30;;;;;;5073626;28;20082;-33
2024/01/31 07:48:16;;;;;;;6.32;2.72;;;7.50;90.30;;;;;;5073301;28;20027;-34
2024/01/31 07:50:43;;;;;;;6.63;3.08;;;7.50;90.30;;;;;;5073979;28;20095;-38
2024/01/31 07:53:08;;;;;;;3.58;2.67;;;7.50;90.30;;;;;;5073812;28;20032;-33
2024/01/31 07:55:34;;;;;;;4.28;2.80;;;7.40;90.30;;;;;;5073947;28;20070;-33
2024/01/31 07:58:00;;;;;;;4.47;2.60;;;7.50;90.30;;;;;;5074059;28;20052;-37
2024/01/31 08:00:27;;;;;;;3.17;2.60;;;7.50;90.30;;;;;;5073737;28;20469;-37
2024/01/31 08:02:52;;;;;;;2.85;2.60;;;7.50;90.30;;;;;;5073819;28;20473;-36
2024/01/31 08:05:18;;;;;;;3.80;2.25;;;7.50;90.30;;;;;;5073379;28;20027;-35
2024/01/31 08:07:47;;;;;;;4.55;2.47;;;7.50;90.20;;;;;;5073486;28;20045;-37
2024/01/31 08:10:13;;;;;;;4.45;2.90;;;7.50;90.20;;;;;;5074026;28;20020;-33
2024/01/31 08:12:41;;;;;;;3.35;2.42;;;7.50;90.20;;;;;;5073558;28;20609;-33
2024/01/31 08:15:07;;;;;;;3.22;2.60;;;7.50;90.20;;;;;;5073116;28;20044;-34
2024/01/31 08:17:32;;;;;;;3.67;2.88;;;7.50;90.20;;;;;;5073198;28;20032;-35
2024/01/31 08:19:58;;;;;;;5.13;2.63;;;7.60;90.30;;;;;;5073143;28;20025;-35
2024/01/31 08:22:23;;;;;;;3.83;2.80;;;7.60;90.30;;;;;;5073200;28;20021;-35
2024/01/31 08:24:50;;;;;;;6.47;2.95;;;7.60;90.30;;;;;;5072973;28;20028;-32
2024/01/31 08:27:18;;;;;;;3.92;2.60;;;7.70;90.50;;;;;;5073148;28;20082;-36
2024/01/31 08:29:44;;;;;;;5.00;2.58;;;7.70;90.20;;;;;;5073272;28;20025;-35
2024/01/31 08:32:10;;;;;;;4.97;2.78;;;7.70;90.20;;;;;;5073102;28;20070;-34
2024/01/31 08:34:35;;;;;;;4.20;2.60;;;7.70;90.20;;;;;;5072933;28;20405;-32
2024/01/31 08:37:01;;;;;;;5.28;2.75;;;7.70;90.30;;;;;;5073053;28;20078;-33
2024/01/31 08:39:29;;;;;;;4.00;2.47;;;7.80;90.30;;;;;;5073092;28;20029;-33
2024/01/31 08:41:55;;;;;;;5.13;3.30;;;7.80;90.30;;;;;;5073073;28;20115;-35
2024/01/31 08:44:21;;;;;;;3.08;2.50;;;7.90;90.30;;;;;;5072850;28;20040;-32
2024/01/31 08:46:47;;;;;;;4.80;2.78;;;7.90;90.20;;;;;;5072555;28;20032;-32
2024/01/31 08:49:12;;;;;;;4.70;3.10;;;7.90;90.20;;;;;;5072827;28;20507;-33
2024/01/31 08:51:38;;;;;;;5.15;2.70;;;7.90;90.20;;;;;;5072958;28;20024;-36
2024/01/31 08:54:05;;;;;;;3.95;2.78;;;7.90;90.20;;;;;;5072754;28;20029;-33
2024/01/31 08:56:31;;;;;;;3.90;2.92;;;8.00;90.20;;;;;;5073197;28;20052;-35
2024/01/31 08:58:56;;;;;;;6.55;3.13;;;8.00;90.20;;;;;;5072039;28;20473;-36
2024/01/31 09:01:22;;;;;;;6.05;3.10;;;8.00;90.20;;;;;;5072727;28;20021;-34
2024/01/31 09:03:49;;;;;;;7.43;3.15;;;8.10;90.20;;;;;;5072748;28;20032;-36
2024/01/31 09:06:14;;;;;;;4.13;3.05;;;8.10;90.20;;;;;;5072536;28;20102;-36
2024/01/31 09:08:40;;;;;;;5.22;3.40;;;8.10;90.10;;;;;;5072314;28;20028;-36
2024/01/31 09:11:06;;;;;;;7.35;3.47;;;8.10;90.10;;;;;;5072829;28;20021;-31
2024/01/31 09:13:31;;;;;;;5.30;3.47;;;8.10;90.10;;;;;;5072881;28;20035;-32
2024/01/31 09:15:57;;;;;;;5.05;3.30;;;8.10;90.10;;;;;;5072511;28;20052;-35
2024/01/31 09:18:22;;;;;;;4.80;3.40;;;8.20;90.00;;;;;;5072391;28;20043;-33
2024/01/31 09:20:48;;;;;;;5.68;3.33;;;8.20;90.00;;;;;;5072239;28;20060;-34
2024/01/31 09:23:13;;;;;;;6.35;3.63;;;8.20;90.00;;;;;;5072693;28;20538;-34
2024/01/31 09:25:39;;;;;;;5.88;3.40;;;8.30;90.00;;;;;;5072060;28;20099;-35
2024/01/31 09:28:05;;;;;;;5.30;3.55;;;8.30;90.00;;;;;;5072219;28;20020;-36
2024/01/31 09:30:30;;;;;;;6.50;3.67;;;8.40;90.00;;;;;;5072348;28;20393;-36
2024/01/31 09:32:56;;;;;;;4.65;3.20;;;8.40;89.90;;;;;;5072286;28;20020;-34
2024/01/31 09:35:22;;;;;;;4.60;3.33;;;8.40;89.70;;;;;;5072039;28;20394;-36
2024/01/31 09:37:47;;;;;;;5.45;3.70;;;8.40;89.60;;;;;;5072577;28;20154;-36
2024/01/31 09:40:17;;;;;;;6.95;3.45;;;8.50;89.60;;;;;;5072069;28;20063;-34
2024/01/31 09:42:44;;;;;;;10.20;5.13;;;8.50;89.50;;;;;;5072435;28;20032;-37
2024/01/31 09:45:14;;;;;;;8.10;4.95;;;8.50;89.30;;;;;;5072196;28;20025;-34
2024/01/31 09:47:44;;;;;;;8.27;5.45;;;8.60;89.30;;;;;;5072334;28;20028;-35
2024/01/31 09:50:10;;;;;;;8.55;5.65;;;8.60;89.30;;;;;;5072097;28;20025;-37
2024/01/31 09:52:39;;;;;;;7.03;4.97;;;8.70;89.10;;;;;;5072207;28;20028;-34
2024/01/31 09:55:09;;;;;;;7.15;5.05;;;8.70;89.10;;;;;;5072234;28;20485;-33
2024/01/31 09:57:35;;;;;;;10.77;4.82;;;8.80;88.90;;;;;;5071799;28;20028;-35
2024/01/31 10:00:03;;;;;;;6.53;4.85;;;8.80;88.80;;;;;;5072241;28;20020;-34
2024/01/31 10:02:31;;;;;;;8.40;5.50;;;8.80;88.70;;;;;;5072087;28;20361;-31
2024/01/31 10:04:56;;;;;;;12.18;5.30;;;8.90;88.60;;;;;;5071621;28;20035;-33
2024/01/31 10:07:28;;;;;;;11.82;6.32;;;8.90;88.50;;;;;;5072008;28;20433;-34
2024/01/31 10:09:55;;;;;;;10.43;4.95;;;9.00;88.40;;;;;;5072735;28;20116;-32
2024/01/31 10:12:22;;;;;;;9.30;5.55;;;9.00;88.30;;;;;;5076001;28;20050;-33
2024/01/31 10:14:48;;;;;;;10.35;5.95;;;9.00;88.20;;;;;;5076115;28;20025;-35
2024/01/31 10:17:14;;;;;;;12.77;6.18;;;9.00;88.10;;;;;;5076026;28;20425;-33
2024/01/31 10:19:40;;;;;;;11.23;6.13;;;9.10;88.10;;;;;;5075748;28;20538;-36
2024/01/31 10:22:06;;;;;;;8.10;5.60;;;9.10;88.10;;;;;;5075714;28;20019;-37
2024/01/31 10:24:32;;;;;;;8.80;6.07;;;9.10;88.10;;;;;;5075798;28;20541;-37
2024/01/31 10:26:57;;;;;;;9.02;6.05;;;9.10;88.10;;;;;;5075464;28;20111;-33
2024/01/31 10:29:24;;;;;;;12.77;7.22;;;9.10;88.10;;;;;;5075445;28;20032;-35
2024/01/31 10:31:52;;;;;;;9.30;6.63;;;9.10;88.00;;;;;;5075436;28;20025;-34
2024/01/31 10:34:18;;;;;;;12.75;6.95;;;9.10;88.00;;;;;;5075506;28;20049;-36
2024/01/31 10:36:44;;;;;;;16.58;8.15;;;9.10;88.00;;;;;;5075301;28;20036;-35
2024/01/31 10:39:10;;;;;;;13.13;8.38;;;9.10;88.00;;;;;;5073899;28;20028;-36
2024/01/31 10:41:35;;;;;;;15.32;7.97;;;9.10;88.10;;;;;;5075132;28;20049;-32
2024/01/31 10:44:03;;;;;;;16.90;9.05;;;9.00;88.10;;;;;;5075046;28;20032;-37
2024/01/31 10:46:29;;;;;;;16.42;9.05;;;9.00;88.20;;;;;;5075219;28;20162;-38
2024/01/31 10:48:55;;;;;;;17.55;9.75;;;9.00;88.30;;;;;;5074985;28;20062;-32
2024/01/31 10:51:22;;;;;;;17.52;9.77;;;9.00;88.40;;;;;;5073740;28;20020;-34
2024/01/31 10:53:50;;;;;;;15.88;10.20;;;9.00;88.30;;;;;;5074686;28;20028;-33
2024/01/31 10:56:17;;;;;;;17.35;9.27;;;9.00;88.40;;;;;;5074921;28;20036;-34
2024/01/31 10:58:44;;;;;;;15.43;9.50;;;9.00;88.50;;;;;;5074663;28;20067;-34
2024/01/31 11:01:14;;;;;;;17.80;10.73;;;9.00;88.60;;;;;;5074706;28;20034;-35
2024/01/31 11:03:46;;;;;;;19.77;10.70;;;9.00;88.70;;;;;;5074679;28;20025;-36
2024/01/31 11:06:12;;;;;;;19.63;10.63;;;9.00;88.80;;;;;;5074776;28;20099;-38
2024/01/31 11:08:41;;;;;;;19.02;11.48;;;9.00;88.90;;;;;;5074900;28;20047;-32
2024/01/31 11:11:10;;;;;;;21.80;12.13;;;9.10;88.90;;;;;;5074493;28;20120;-32
2024/01/31 11:13:36;;;;;;;21.42;12.45;;;9.10;88.90;;;;;;5074663;28;20020;-31
2024/01/31 11:16:03;;;;;;;18.63;11.30;;;9.10;88.90;;;;;;5074416;28;20499;-34
2024/01/31 11:18:29;;;;;;;22.95;12.68;;;9.20;89.00;;;;;;5074585;28;20025;-33
2024/01/31 11:20:56;;;;;;;23.38;13.88;;;9.20;88.90;;;;;;5074333;28;20028;-37
2024/01/31 11:23:23;;;;;;;21.73;13.25;;;9.20;88.90;;;;;;5073313;28;20044;-37
2024/01/31 11:25:52;;;;;;;22.73;13.82;;;9.20;89.00;;;;;;5074162;28;20035;-36
2024/01/31 11:28:19;;;;;;;20.55;12.77;;;9.20;89.10;;;;;;5074610;28;20040;-37
2024/01/31 11:30:51;;;;;;;20.90;12.68;;;9.20;89.00;;;;;;5074361;28;20480;-32
2024/01/31 11:33:17;;;;;;;23.27;12.75;;;9.30;89.10;;;;;;5074375;28;20027;-34
2024/01/31 11:35:43;;;;;;;21.27;11.73;;;9.30;89.10;;;;;;5073718;28;20126;-36
2024/01/31 11:38:09;;;;;;;26.75;12.77;;;9.30;89.00;;;;;;5074030;28;20020;-37
2024/01/31 11:40:35;;;;;;;23.00;13.23;;;9.40;89.10;;;;;;5073593;28;20527;-40
2024/01/31 11:43:01;;;;;;;22.98;12.73;;;9.40;89.10;;;;;;5074098;28;20039;-35
2024/01/31 11:45:27;;;;;;;24.55;13.32;;;9.40;89.00;;;;;;5073646;28;20490;-35
2024/01/31 11:47:54;;;;;;;21.13;12.90;;;9.40;89.00;;;;;;5073627;28;20217;-37
2024/01/31 11:50:20;;;;;;;23.63;13.60;;;9.50;89.00;;;;;;5073687;28;20102;-35
2024/01/31 11:52:46;;;;;;;23.40;13.27;;;9.50;88.90;;;;;;5073773;28;20091;-37
2024/01/31 11:55:12;;;;;;;20.02;12.30;;;9.50;88.80;;;;;;5073350;28;20116;-40
2024/01/31 11:57:38;;;;;;;22.15;12.55;;;9.50;88.90;;;;;;5073987;28;20056;-38
2024/01/31 12:00:05;;;;;;;20.38;11.70;;;9.60;88.80;;;;;;5073821;28;20485;-36
2024/01/31 12:02:36;;;;;;;19.15;11.43;;;9.50;88.70;;;;;;5073440;28;20519;-35
2024/01/31 12:05:01;;;;;;;19.95;11.75;;;9.60;88.80;;;;;;5073189;28;20339;-32
2024/01/31 12:07:28;;;;;;;22.13;12.45;;;9.60;88.70;;;;;;5073565;28;20029;-35
2024/01/31 12:09:54;;;;;;;21.67;12.63;;;9.50;88.60;;;;;;5073097;28;20031;-34
2024/01/31 12:12:19;;;;;;;21.35;12.55;;;9.50;88.50;;;;;;5073240;28;20481;-38
2024/01/31 12:14:45;;;;;;;20.60;11.70;;;9.50;88.50;;;;;;5073329;28;20020;-36
2024/01/31 12:17:27;;;;;;;18.55;11.68;;;9.50;88.50;;;;;;5073299;28;20070;-37
2024/01/31 12:20:09;;;;;;;16.80;11.35;;;9.50;88.50;;;;;;5073072;28;20090;-34
2024/01/31 12:22:39;;;;;;;20.23;12.15;;;9.50;88.40;;;;;;5072972;28;20031;-34
2024/01/31 12:25:05;;;;;;;16.27;10.85;;;9.50;88.10;;;;;;5072856;28;21995;-35
2024/01/31 12:27:32;;;;;;;16.38;10.55;;;9.40;87.90;;;;;;5072733;28;20038;-36
2024/01/31 12:29:58;;;;;;;20.65;11.57;;;9.40;87.90;;;;;;5073095;28;20044;-37
2024/01/31 12:32:25;;;;;;;16.75;10.15;;;9.40;87.90;;;;;;5072626;28;20067;-40
2024/01/31 12:34:50;;;;;;;15.73;9.65;;;9.40;87.70;;;;;;5072187;28;20053;-36
2024/01/31 12:37:16;;;;;;;13.68;9.30;;;9.50;87.60;;;;;;5072685;28;20036;-33
2024/01/31 12:39:42;;;;;;;13.60;9.48;;;9.40;87.10;;;;;;5072447;28;20035;-36
2024/01/31 12:42:08;;;;;;;16.13;9.38;;;9.40;86.80;;;;;;5072826;28;20382;-34
2024/01/31 12:44:34;;;;;;;11.50;8.80;;;9.40;86.20;;;;;;5072231;28;20035;-39
2024/01/31 12:47:05;;;;;;;12.25;8.95;;;9.30;86.00;;;;;;5072502;28;20020;-36